Time;durP1;ratioP1;P1;durP2;ratioP2;P2;SDS_P1;SDS_P2;PMS_P1;PMS_P2;Temp;Humidity;BMP_temperature;BMP_pressure;BME280_temperature;BME280_humidity;BME280_pressure;Samples;Min_cycle;Max_cycle;Signal;HPM_P1;HPM_P2
2023/02/13 00:00:26;;;;;;;97.57;31.38;;;;;;;2.01;100.00;103659.66;5223633;28;20135;-74
2023/02/13 00:02:57;;;;;;;91.93;31.13;;;;;;;1.94;100.00;103660.72;5218447;28;20028;-74
2023/02/13 00:05:27;;;;;;;89.75;31.25;;;;;;;1.91;100.00;103654.63;5216083;28;20412;-75
2023/02/13 00:07:57;;;;;;;96.25;33.65;;;;;;;1.92;100.00;103659.03;5222585;28;20032;-75
2023/02/13 00:10:28;;;;;;;100.45;32.78;;;;;;;1.91;100.00;103663.47;5223227;28;20390;-74
2023/02/13 00:12:59;;;;;;;114.50;35.22;;;;;;;1.86;100.00;103659.19;5223810;28;20025;-74
2023/02/13 00:15:29;;;;;;;107.85;32.45;;;;;;;1.79;100.00;103655.84;5223490;28;20167;-74
2023/02/13 00:18:02;;;;;;;95.03;32.42;;;;;;;1.73;100.00;103654.22;5223284;28;20103;-74
2023/02/13 00:20:35;;;;;;;101.20;32.63;;;;;;;1.66;100.00;103652.69;5222914;28;20017;-75
2023/02/13 00:23:06;;;;;;;93.07;32.63;;;;;;;1.60;100.00;103650.16;5223680;28;20021;-75
2023/02/13 00:25:37;;;;;;;94.75;30.75;;;;;;;1.54;100.00;103645.91;5223368;28;20033;-74
2023/02/13 00:28:08;;;;;;;88.95;31.52;;;;;;;1.50;100.00;103640.72;5205305;28;20091;-74
2023/02/13 00:30:38;;;;;;;95.70;31.55;;;;;;;1.48;100.00;103639.91;5223172;28;20041;-74
2023/02/13 00:33:09;;;;;;;81.03;29.00;;;;;;;1.49;100.00;103639.00;5205214;28;20151;-74
2023/02/13 00:35:39;;;;;;;91.55;28.77;;;;;;;1.45;100.00;103637.31;5223462;28;20155;-74
2023/02/13 00:38:10;;;;;;;74.65;27.05;;;;;;;1.39;100.00;103637.50;5221803;28;20103;-74
2023/02/13 00:40:40;;;;;;;80.35;29.85;;;;;;;1.37;100.00;103639.31;5173768;28;20017;-74
2023/02/13 00:43:11;;;;;;;98.85;31.88;;;;;;;1.36;100.00;103642.88;5217044;28;20056;-74
2023/02/13 00:45:42;;;;;;;96.78;29.67;;;;;;;1.36;100.00;103637.59;5203032;28;20025;-74
2023/02/13 00:48:13;;;;;;;108.03;33.50;;;;;;;1.33;100.00;103642.94;5203750;28;20060;-74
2023/02/13 00:50:45;;;;;;;88.47;28.33;;;;;;;1.30;100.00;103643.88;5203145;28;20025;-74
2023/02/13 00:53:15;;;;;;;103.32;31.92;;;;;;;1.26;100.00;103637.81;5209046;28;20020;-74
2023/02/13 00:55:46;;;;;;;84.63;29.05;;;;;;;1.24;100.00;103644.03;5210805;28;20037;-74
2023/02/13 00:58:18;;;;;;;82.28;28.05;;;;;;;1.22;100.00;103641.44;5192272;28;20055;-74
2023/02/13 01:00:50;;;;;;;92.25;28.38;;;;;;;1.18;100.00;103634.47;5209877;28;20026;-75
2023/02/13 01:03:22;;;;;;;89.93;28.92;;;;;;;1.12;100.00;103631.97;5202829;28;20112;-75
2023/02/13 01:05:52;;;;;;;98.47;31.73;;;;;;;1.07;100.00;103625.94;5222349;28;20029;-75
2023/02/13 01:08:23;;;;;;;110.20;33.97;;;;;;;1.03;100.00;103622.50;5226527;28;20075;-75
2023/02/13 01:10:54;;;;;;;98.45;31.98;;;;;;;1.01;100.00;103631.38;5226557;28;20056;-75
2023/02/13 01:13:25;;;;;;;87.13;28.27;;;;;;;1.00;100.00;103634.91;5227384;28;20051;-74
2023/02/13 01:15:55;;;;;;;106.20;29.25;;;;;;;1.01;100.00;103637.53;5226879;28;20103;-75
2023/02/13 01:18:26;;;;;;;86.72;29.45;;;;;;;1.02;100.00;103628.69;5226813;28;20039;-75
2023/02/13 01:21:01;;;;;;;87.80;29.65;;;;;;;0.96;100.00;103631.50;5226198;28;20059;-75
2023/02/13 01:23:34;;;;;;;;;;;;;;;0.92;100.00;103632.47;5227396;28;20028;-75
2023/02/13 01:26:06;;;;;;;79.85;27.02;;;;;;;0.90;100.00;103636.03;5226728;28;19909;-75
2023/02/13 01:28:37;;;;;;;104.93;30.75;;;;;;;0.85;100.00;103629.97;5226358;28;20551;-74
2023/02/13 01:31:07;;;;;;;109.30;30.25;;;;;;;0.76;100.00;103631.94;5226562;28;20029;-74
2023/02/13 01:33:38;;;;;;;139.02;31.13;;;;;;;0.68;100.00;103633.88;5208499;28;20632;-75
2023/02/13 01:36:10;;;;;;;91.25;29.10;;;;;;;0.61;100.00;103629.66;5226464;28;20107;-74
2023/02/13 01:38:42;;;;;;;74.60;26.95;;;;;;;0.56;100.00;103633.31;5226363;28;20091;-74
2023/02/13 01:41:14;;;;;;;73.47;25.30;;;;;;;0.49;100.00;103633.41;5226716;28;20021;-74
2023/02/13 01:43:49;;;;;;;152.15;40.15;;;;;;;0.45;100.00;103636.16;5226359;28;20464;-74
2023/02/13 01:46:26;;;;;;;134.82;37.03;;;;;;;0.48;100.00;103633.44;5226192;28;20049;-73
2023/02/13 01:49:03;;;;;;;121.75;33.83;;;;;;;0.47;100.00;103631.72;5226613;28;20082;-75
2023/02/13 01:51:35;;;;;;;117.88;33.17;;;;;;;0.43;100.00;103635.31;5226104;28;20051;-75
2023/02/13 01:54:11;;;;;;;77.85;24.95;;;;;;;0.39;100.00;103645.06;5226380;28;20425;-74
2023/02/13 01:56:47;;;;;;;95.35;26.58;;;;;;;0.35;100.00;103640.78;5208011;28;20032;-74
2023/02/13 01:59:23;;;;;;;104.03;28.58;;;;;;;0.31;100.00;103640.88;5225828;28;20025;-74
2023/02/13 02:01:56;;;;;;;107.65;29.52;;;;;;;0.25;100.00;103634.81;5226519;28;20024;-74
2023/02/13 02:04:32;;;;;;;97.57;29.60;;;;;;;0.22;100.00;103632.22;5212834;28;20029;-74
2023/02/13 02:07:26;;;;;;;354.08;44.15;;;;;;;0.17;100.00;103636.75;5211551;28;20033;-75
2023/02/13 02:10:04;;;;;;;413.40;44.35;;;;;;;0.04;100.00;103632.59;5226030;28;20103;-74
2023/02/13 02:12:40;;;;;;;526.63;50.92;;;;;;;-0.06;100.00;103628.41;5208277;28;20551;-74
2023/02/13 02:15:27;;;;;;;381.92;42.20;;;;;;;-0.14;100.00;103627.69;5195346;28;20024;-74
2023/02/13 02:18:15;;;;;;;173.65;33.47;;;;;;;-0.18;100.00;103623.38;5209264;28;20032;-74
2023/02/13 02:21:28;;;;;;;414.02;39.70;;;;;;;-0.27;100.00;103625.25;5225894;28;20029;-74
2023/02/13 02:24:16;;;;;;;306.98;33.90;;;;;;;-0.33;100.00;103624.53;5208036;28;20047;-74
2023/02/13 02:27:22;;;;;;;136.95;29.30;;;;;;;-0.42;100.00;103624.69;5225404;28;20037;-74
2023/02/13 02:30:25;;;;;;;177.48;30.95;;;;;;;-0.44;100.00;103622.09;5225198;28;20509;-74
2023/02/13 02:33:10;;;;;;;261.15;35.42;;;;;;;-0.47;100.00;103624.75;5225741;28;20039;-74
2023/02/13 02:35:52;;;;;;;;;;;;;;;-0.49;100.00;103621.28;5213630;28;20075;-75
2023/02/13 02:38:30;;;;;;;144.63;33.40;;;;;;;-0.49;100.00;103608.09;5225363;28;19909;-74
2023/02/13 02:44:35;;;;;;;330.58;41.28;;;;;;;-0.49;100.00;103618.66;5225100;28;20103;-74
2023/02/13 02:50:19;;;;;;;330.33;35.83;;;;;;;-0.58;100.00;103618.81;5225098;28;20024;-74
2023/02/13 02:53:09;;;;;;;439.40;38.08;;;;;;;-0.67;100.00;103609.28;5225042;28;20477;-74
2023/02/13 02:55:53;;;;;;;455.67;42.03;;;;;;;-0.73;100.00;103614.66;5225515;28;20036;-74
2023/02/13 03:07:20;;;;;;;394.60;43.47;;;;;;;-0.94;100.00;103610.63;5224167;28;20114;-74
2023/02/13 03:25:33;;;;;;;283.05;38.80;;;;;;;-0.90;100.00;103614.09;5216838;28;20025;-73
2023/02/13 03:31:32;;;;;;;440.95;41.30;;;;;;;-1.01;100.00;103605.47;5214665;28;20516;-74
2023/02/13 03:34:08;;;;;;;503.70;47.42;;;;;;;-1.08;100.00;103599.44;5207981;28;20036;-73
2023/02/13 03:40:11;;;;;;;599.45;55.15;;;;;;;-1.13;100.00;103611.81;5224926;28;20082;-74
2023/02/13 03:42:47;;;;;;;601.45;56.22;;;;;;;-1.13;100.00;103603.91;5224539;28;20460;-74
2023/02/13 03:51:07;;;;;;;363.17;47.65;;;;;;;-0.99;100.00;103606.31;5223652;28;20028;-73
2023/02/13 03:53:41;;;;;;;443.52;51.28;;;;;;;-0.95;100.00;103598.34;5224401;28;20029;-73
2023/02/13 03:59:17;;;;;;;365.58;48.65;;;;;;;-0.90;100.00;103596.50;5223903;28;20025;-73
2023/02/13 04:02:00;;;;;;;434.00;47.40;;;;;;;-0.90;100.00;103604.41;5224060;28;20025;-74
2023/02/13 04:04:52;;;;;;;478.58;50.58;;;;;;;-0.87;100.00;103614.03;5223957;28;20108;-74
2023/02/13 04:10:16;;;;;;;300.05;43.03;;;;;;;-0.82;100.00;103599.00;5223647;28;20465;-74
2023/02/13 04:13:07;;;;;;;313.45;43.42;;;;;;;-0.82;100.00;103604.28;5223955;28;20032;-73
2023/02/13 04:15:56;;;;;;;281.10;44.63;;;;;;;-0.85;100.00;103605.22;5223819;28;20037;-74
2023/02/13 04:18:29;;;;;;;306.05;42.00;;;;;;;-0.85;100.00;103612.25;5223768;28;20033;-73
2023/02/13 04:21:03;;;;;;;378.60;47.22;;;;;;;-0.84;100.00;103600.81;5210632;28;20036;-74
2023/02/13 04:23:33;;;;;;;306.55;42.28;;;;;;;-0.84;100.00;103612.22;5223754;28;20072;-74
2023/02/13 04:26:11;;;;;;;208.07;36.97;;;;;;;-0.81;100.00;103620.06;5223776;28;20021;-74
2023/02/13 04:28:42;;;;;;;131.73;35.15;;;;;;;-0.81;100.00;103617.41;5223225;28;20052;-73
2023/02/13 04:31:12;;;;;;;172.93;38.13;;;;;;;-0.74;100.00;103617.34;5223575;28;20060;-74
2023/02/13 04:33:43;;;;;;;159.23;38.60;;;;;;;-0.70;100.00;103614.63;5223859;28;20029;-74
2023/02/13 04:36:13;;;;;;;380.30;46.08;;;;;;;-0.70;100.00;103619.91;5223687;28;20028;-74
2023/02/13 04:38:44;;;;;;;335.63;41.80;;;;;;;-0.72;100.00;103623.44;5205902;28;20397;-74
2023/02/13 04:41:15;;;;;;;216.45;40.80;;;;;;;-0.72;100.00;103621.66;5210009;28;20032;-74
2023/02/13 04:43:46;;;;;;;249.10;42.13;;;;;;;-0.71;100.00;103617.25;5227742;28;20025;-74
2023/02/13 04:46:16;;;;;;;208.82;39.83;;;;;;;-0.69;100.00;103618.13;5227577;28;20033;-74
2023/02/13 04:48:47;;;;;;;249.70;40.80;;;;;;;-0.65;100.00;103611.91;5209698;28;20083;-74
2023/02/13 04:51:17;;;;;;;432.83;52.10;;;;;;;-0.63;100.00;103604.84;5227018;28;20025;-74
2023/02/13 04:53:48;;;;;;;521.78;52.67;;;;;;;-0.65;100.00;103609.28;5210303;28;20033;-74
2023/02/13 04:56:18;;;;;;;382.88;46.28;;;;;;;-0.68;100.00;103599.63;5227610;28;20082;-74
2023/02/13 04:58:49;;;;;;;450.05;47.22;;;;;;;-0.70;100.00;103603.19;5227060;28;20025;-74
2023/02/13 05:01:20;;;;;;;195.82;38.53;;;;;;;-0.69;100.00;103604.94;5227139;28;20052;-74
2023/02/13 05:03:50;;;;;;;186.10;41.00;;;;;;;-0.69;100.00;103603.19;5196918;28;20025;-74
2023/02/13 05:06:21;;;;;;;184.57;40.17;;;;;;;-0.67;100.00;103609.28;5226230;28;20071;-74
2023/02/13 05:08:51;;;;;;;124.50;36.15;;;;;;;-0.66;100.00;103604.88;5227116;28;20024;-74
2023/02/13 05:11:22;;;;;;;359.48;49.85;;;;;;;-0.66;100.00;103616.28;5226882;28;20029;-74
2023/02/13 05:13:52;;;;;;;251.20;43.15;;;;;;;-0.68;100.00;103609.31;5227247;28;20358;-74
2023/02/13 05:16:23;;;;;;;249.15;44.30;;;;;;;-0.69;100.00;103610.22;5226288;28;20112;-74
2023/02/13 05:18:53;;;;;;;309.55;43.30;;;;;;;-0.73;100.00;103613.81;5227230;28;20439;-74
2023/02/13 05:24:13;;;;;;;165.40;33.03;;;;;;;-0.83;100.00;103615.72;5226886;28;20049;-74
2023/02/13 05:26:43;;;;;;;240.02;36.60;;;;;;;-0.86;100.00;103611.34;5208443;28;20058;-74
2023/02/13 05:29:24;;;;;;;187.55;34.83;;;;;;;-0.89;100.00;103618.47;5209217;28;20104;-74
2023/02/13 05:31:57;;;;;;;196.20;34.75;;;;;;;-0.93;100.00;103616.75;5226722;28;20478;-74
2023/02/13 05:34:28;;;;;;;202.75;35.17;;;;;;;-0.97;100.00;103613.28;5226680;28;20120;-74
2023/02/13 05:36:59;;;;;;;203.32;34.67;;;;;;;-1.02;100.00;103620.41;5208345;28;20029;-74
2023/02/13 05:39:29;;;;;;;234.73;37.92;;;;;;;-1.06;100.00;103616.06;5226407;28;20067;-74
2023/02/13 05:42:00;;;;;;;233.85;35.63;;;;;;;-1.08;100.00;103623.13;5226448;28;20013;-74
2023/02/13 05:44:31;;;;;;;141.23;32.13;;;;;;;-1.13;100.00;103625.84;5226649;28;20021;-74
2023/02/13 05:47:01;;;;;;;179.27;35.65;;;;;;;-1.16;100.00;103620.59;5225930;28;20047;-74
2023/02/13 05:49:32;;;;;;;172.43;34.67;;;;;;;-1.20;100.00;103616.31;5226138;28;20751;-74
2023/02/13 05:52:03;;;;;;;239.27;39.50;;;;;;;-1.22;100.00;103614.56;5225963;28;20102;-74
2023/02/13 05:54:33;;;;;;;131.57;33.63;;;;;;;-1.24;100.00;103619.88;5226284;28;20028;-74
2023/02/13 05:57:03;;;;;;;125.75;34.58;;;;;;;-1.24;100.00;103613.72;5226023;28;20021;-74
2023/02/13 05:59:34;;;;;;;143.38;34.42;;;;;;;-1.27;100.00;103616.41;5226059;28;20017;-74
2023/02/13 06:02:05;;;;;;;98.57;33.20;;;;;;;-1.29;100.00;103621.69;5226079;28;20054;-74
2023/02/13 06:04:35;;;;;;;191.93;37.00;;;;;;;-1.31;100.00;103623.47;5226112;28;20082;-74
2023/02/13 06:07:05;;;;;;;215.93;36.25;;;;;;;-1.36;100.00;103627.94;5225893;28;20056;-74
2023/02/13 06:09:36;;;;;;;180.23;33.63;;;;;;;-1.39;100.00;103628.00;5225766;28;20074;-74
2023/02/13 06:12:06;;;;;;;159.45;36.67;;;;;;;-1.43;100.00;103627.16;5225815;28;20047;-74
2023/02/13 06:14:37;;;;;;;157.18;34.03;;;;;;;-1.47;100.00;103625.44;5225755;28;20051;-74
2023/02/13 06:17:07;;;;;;;237.63;39.25;;;;;;;-1.51;100.00;103626.38;5225551;28;20028;-74
2023/02/13 06:19:38;;;;;;;208.35;35.85;;;;;;;-1.55;100.00;103626.47;5226120;28;20029;-75
2023/02/13 06:22:08;;;;;;;189.13;35.38;;;;;;;-1.60;100.00;103622.13;5207960;28;20049;-74
2023/02/13 06:24:39;;;;;;;207.75;35.17;;;;;;;-1.64;100.00;103625.69;5225867;28;20041;-74
2023/02/13 06:27:09;;;;;;;160.07;34.10;;;;;;;-1.67;100.00;103619.56;5224857;28;20500;-74
2023/02/13 06:29:40;;;;;;;197.90;34.78;;;;;;;-1.72;100.00;103618.75;5225629;28;20096;-74
2023/02/13 06:32:10;;;;;;;173.68;35.80;;;;;;;-1.77;100.00;103623.22;5207833;28;20065;-74
2023/02/13 06:34:40;;;;;;;319.98;43.70;;;;;;;-1.82;100.00;103624.13;5225656;28;20021;-74
2023/02/13 06:37:11;;;;;;;106.22;31.73;;;;;;;-1.87;100.00;103614.56;5225001;28;20024;-74
2023/02/13 06:39:41;;;;;;;137.10;33.03;;;;;;;-1.90;100.00;103612.84;5225109;28;20036;-74
2023/02/13 06:42:12;;;;;;;136.10;33.22;;;;;;;-1.91;100.00;103613.75;5207712;28;20436;-74
2023/02/13 06:44:42;;;;;;;120.32;32.70;;;;;;;-1.91;100.00;103621.63;5225365;28;20032;-74
2023/02/13 06:47:13;;;;;;;137.25;33.67;;;;;;;-1.90;100.00;103620.75;5224840;28;20020;-74
2023/02/13 06:49:43;;;;;;;170.50;33.88;;;;;;;-1.92;100.00;103614.59;5225273;28;20029;-74
2023/02/13 06:52:14;;;;;;;199.02;37.28;;;;;;;-1.94;100.00;103621.66;5224822;28;20096;-74
2023/02/13 06:54:44;;;;;;;177.25;34.35;;;;;;;-1.93;100.00;103623.41;5225220;28;20064;-74
2023/02/13 06:57:15;;;;;;;134.15;32.83;;;;;;;-1.93;100.00;103619.91;5225271;28;20028;-74
2023/02/13 06:59:46;;;;;;;158.25;39.05;;;;;;;-1.93;100.00;103618.13;5225199;28;20112;-74
2023/02/13 07:02:16;;;;;;;166.15;34.90;;;;;;;-1.94;100.00;103628.69;5225616;28;20043;-74
2023/02/13 07:04:47;;;;;;;104.20;33.50;;;;;;;-1.94;100.00;103629.56;5207992;28;20025;-74
2023/02/13 07:07:17;;;;;;;94.13;31.95;;;;;;;-1.93;100.00;103626.03;5217329;28;20583;-74
2023/02/13 07:09:48;;;;;;;157.95;36.88;;;;;;;-1.92;100.00;103632.16;5223836;28;20649;-74
2023/02/13 07:12:19;;;;;;;110.03;34.42;;;;;;;-1.91;100.00;103624.28;5223407;28;20031;-74
2023/02/13 07:14:49;;;;;;;111.38;34.38;;;;;;;-1.88;100.00;103628.59;5223657;28;20155;-74
2023/02/13 07:17:20;;;;;;;94.75;33.03;;;;;;;-1.89;100.00;103630.38;5204772;28;20758;-74
2023/02/13 07:19:51;;;;;;;85.85;30.48;;;;;;;-1.89;100.00;103632.13;5223774;28;20039;-74
2023/02/13 07:22:21;;;;;;;87.15;31.65;;;;;;;-1.87;100.00;103625.94;5223699;28;20029;-74
2023/02/13 07:24:53;;;;;;;90.45;32.65;;;;;;;-1.80;100.00;103628.53;5223326;28;20485;-74
2023/02/13 07:27:23;;;;;;;103.43;33.72;;;;;;;-1.74;100.00;103631.94;5223038;28;20509;-74
2023/02/13 07:29:56;;;;;;;83.82;32.40;;;;;;;-1.68;100.00;103631.88;5223094;28;20025;-74
2023/02/13 07:32:26;;;;;;;90.50;32.15;;;;;;;-1.63;100.00;103631.81;5223734;28;20051;-74
2023/02/13 07:34:57;;;;;;;82.95;31.77;;;;;;;-1.58;100.00;103627.34;5223362;28;20028;-74
2023/02/13 07:37:29;;;;;;;83.70;31.50;;;;;;;-1.50;100.00;103636.03;5205155;28;20096;-74
2023/02/13 07:40:00;;;;;;;80.65;29.52;;;;;;;-1.39;100.00;103636.75;5205381;28;20473;-74
2023/02/13 07:42:33;;;;;;;72.90;28.63;;;;;;;-1.26;100.00;103634.81;5223249;28;20032;-75
2023/02/13 07:45:05;;;;;;;74.22;28.90;;;;;;;-1.18;100.00;103637.34;5222836;28;20033;-75
2023/02/13 07:47:35;;;;;;;73.07;28.10;;;;;;;-1.11;100.00;103642.47;5222697;28;20433;-74
2023/02/13 07:50:07;;;;;;;71.90;27.52;;;;;;;-0.95;100.00;103640.50;5222847;28;20029;-75
2023/02/13 07:52:37;;;;;;;74.40;28.13;;;;;;;-0.76;100.00;103642.84;5222639;28;20086;-75
2023/02/13 07:55:10;;;;;;;72.00;28.92;;;;;;;-0.53;100.00;103638.94;5222971;28;20064;-75
2023/02/13 07:57:40;;;;;;;68.55;27.55;;;;;;;-0.27;100.00;103640.22;5222193;28;20071;-75
2023/02/13 08:00:12;;;;;;;63.28;26.42;;;;;;;0.16;100.00;103639.41;5205161;28;20036;-75
2023/02/13 08:02:43;;;;;;;58.78;27.42;;;;;;;0.55;100.00;103642.09;5222702;28;20044;-75
2023/02/13 08:05:13;;;;;;;47.70;22.17;;;;;;;0.88;100.00;103651.06;5204435;28;20548;-75
2023/02/13 08:07:44;;;;;;;53.33;23.58;;;;;;;1.34;100.00;103652.59;5222291;28;20059;-75
2023/02/13 08:13:06;;;;;;;53.17;24.63;;;;;;;2.40;100.00;103650.63;5210203;28;20102;-75
2023/02/13 08:15:36;;;;;;;59.72;24.17;;;;;;;2.41;100.00;103647.03;5203941;28;20056;-75
2023/02/13 08:18:07;;;;;;;53.45;22.20;;;;;;;2.55;100.00;103653.69;5222360;28;20032;-76
2023/02/13 08:20:38;;;;;;;41.58;21.70;;;;;;;2.77;100.00;103653.91;5222936;28;20027;-76
2023/02/13 08:23:09;;;;;;;53.13;23.73;;;;;;;3.12;100.00;103651.94;5222509;28;20033;-75
2023/02/13 08:25:40;;;;;;;47.63;22.60;;;;;;;3.41;100.00;103648.28;5204647;28;20481;-75
2023/02/13 08:28:10;;;;;;;44.47;21.35;;;;;;;3.65;100.00;103646.59;5221580;28;20029;-75
2023/02/13 08:30:41;;;;;;;40.40;19.92;;;;;;;3.84;100.00;103642.38;5222406;28;20021;-75
2023/02/13 08:33:12;;;;;;;43.10;21.00;;;;;;;3.88;100.00;103641.38;5204466;28;20448;-75
2023/02/13 08:35:42;;;;;;;37.17;19.77;;;;;;;4.09;100.00;103637.06;5222391;28;20048;-75
2023/02/13 08:38:12;;;;;;;39.30;19.77;;;;;;;4.22;100.00;103641.91;5221919;28;20021;-75
2023/02/13 08:40:43;;;;;;;50.10;20.25;;;;;;;4.31;100.00;103630.94;5222018;28;20464;-75
2023/02/13 08:43:13;;;;;;;36.00;18.02;;;;;;;4.52;100.00;103632.81;5222176;28;20032;-75
2023/02/13 08:45:44;;;;;;;42.70;19.42;;;;;;;4.72;100.00;103636.44;5222241;28;20401;-75
2023/02/13 08:48:14;;;;;;;35.13;19.00;;;;;;;4.84;100.00;103641.31;5221890;28;20064;-75
2023/02/13 08:50:45;;;;;;;39.17;19.90;;;;;;;5.02;100.00;103648.56;5222400;28;20067;-76
2023/02/13 08:53:16;;;;;;;31.02;18.17;;;;;;;5.31;100.00;103649.16;5204190;28;20539;-75
2023/02/13 08:56:05;;;;;;;38.35;18.83;;;;;;;5.52;100.00;103650.03;5222489;28;20033;-75
2023/02/13 08:58:36;;;;;;;33.40;18.40;;;;;;;5.71;100.00;103656.31;5211280;28;20493;-76
2023/02/13 09:01:07;;;;;;;39.38;18.77;;;;;;;5.70;100.00;103654.59;5224541;28;20040;-76
2023/02/13 09:03:38;;;;;;;36.22;19.50;;;;;;;5.76;100.00;103654.31;5212732;28;20566;-75
2023/02/13 09:06:08;;;;;;;41.90;20.02;;;;;;;5.95;100.00;103649.94;5220359;28;20028;-75
2023/02/13 09:08:39;;;;;;;36.75;20.15;;;;;;;6.21;100.00;103650.56;5221933;28;20029;-75
2023/02/13 09:11:09;;;;;;;37.72;20.73;;;;;;;6.51;100.00;103655.44;5222265;28;20025;-76
2023/02/13 09:13:40;;;;;;;38.30;20.70;;;;;;;6.72;100.00;103654.44;5221745;28;20028;-76
2023/02/13 09:16:10;;;;;;;35.05;19.45;;;;;;;6.79;100.00;103657.69;5221645;28;20025;-75
2023/02/13 09:18:41;;;;;;;32.25;18.33;;;;;;;6.93;100.00;103660.56;5221403;28;20039;-75
2023/02/13 09:21:11;;;;;;;40.45;20.45;;;;;;;7.01;100.00;103664.56;5222199;28;20029;-75
2023/02/13 09:23:42;;;;;;;43.30;19.17;;;;;;;7.19;100.00;103662.81;5221394;28;20033;-75
2023/02/13 09:26:14;;;;;;;34.35;18.77;;;;;;;7.24;100.00;103660.78;5223065;28;20024;-76
2023/02/13 09:28:44;;;;;;;38.63;19.13;;;;;;;7.33;100.00;103653.25;5225311;28;20029;-75
2023/02/13 09:31:18;;;;;;;35.08;19.33;;;;;;;7.67;100.00;103653.25;5225761;28;20052;-75
2023/02/13 09:33:49;;;;;;;36.03;19.42;;;;;;;7.81;100.00;103665.91;5225141;28;20040;-76
2023/02/13 09:36:22;;;;;;;37.70;18.83;;;;;;;7.83;100.00;103656.03;5225195;28;20051;-75
2023/02/13 09:38:56;;;;;;;35.33;18.98;;;;;;;8.05;100.00;103655.75;5225205;28;20021;-75
2023/02/13 09:41:30;;;;;;;37.67;18.48;;;;;;;8.11;100.00;103652.75;5207413;28;20661;-76
2023/02/13 09:44:04;;;;;;;33.63;18.35;;;;;;;8.36;100.00;103654.09;5225246;28;20035;-76
2023/02/13 09:46:37;;;;;;;31.58;17.58;;;;;;;8.56;100.00;103659.25;5224599;28;20036;-76
2023/02/13 09:49:14;;;;;;;37.60;18.35;;;;;;;8.74;100.00;103652.03;5224930;28;20493;-76
2023/02/13 09:51:53;;;;;;;33.95;17.17;;;;;;;8.75;100.00;103664.47;5225040;28;20032;-76
2023/02/13 09:54:25;;;;;;;30.45;17.05;;;;;;;8.85;100.00;103654.97;5206897;28;20051;-76
2023/02/13 09:57:00;;;;;;;32.13;17.52;;;;;;;8.70;100.00;103653.16;5207397;28;20734;-76
2023/02/13 09:59:31;;;;;;;;;;;;;;;8.94;100.00;103659.81;5225017;28;20116;-76
2023/02/13 10:02:19;;;;;;;31.98;16.88;;;;;;;9.21;100.00;103659.16;5224795;28;20004;-76
2023/02/13 10:05:16;;;;;;;33.33;18.35;;;;;;;9.29;100.00;103655.09;5211723;28;20060;-76
2023/02/13 10:08:24;;;;;;;38.50;18.80;;;;;;;9.29;100.00;103660.44;5224128;28;20020;-76
2023/02/13 10:11:24;;;;;;;36.10;18.58;;;;;;;9.37;100.00;103654.63;5224204;28;20025;-76
2023/02/13 10:14:10;;;;;;;32.80;17.75;;;;;;;9.44;100.00;103653.34;5224646;28;20032;-76
2023/02/13 10:16:43;;;;;;;;;;;;;;;9.47;100.00;103655.81;5224886;28;20184;-76
2023/02/13 10:19:51;;;;;;;30.45;16.23;;;;;;;9.33;100.00;103661.13;5224674;28;20222;-76
2023/02/13 10:22:42;;;;;;;32.10;17.17;;;;;;;9.49;100.00;103651.25;5224453;28;20107;-76
2023/02/13 10:25:20;;;;;;;32.40;16.77;;;;;;;9.67;100.00;103657.31;5224264;28;20508;-76
2023/02/13 10:28:11;;;;;;;28.85;15.75;;;;;;;9.73;100.00;103656.06;5224154;28;20075;-76
2023/02/13 10:30:56;;;;;;;29.73;16.05;;;;;;;9.93;100.00;103649.50;5223913;28;20051;-76
2023/02/13 10:33:35;;;;;;;30.90;15.70;;;;;;;10.03;100.00;103643.47;5224440;28;20056;-76
2023/02/13 10:36:15;;;;;;;28.27;15.45;;;;;;;10.11;100.00;103641.19;5224460;28;20044;-76
2023/02/13 10:39:05;;;;;;;31.15;15.95;;;;;;;10.16;100.00;103645.41;5223735;28;20654;-76
2023/02/13 10:41:53;;;;;;;28.23;15.45;;;;;;;10.26;100.00;103643.91;5223924;28;20064;-76
2023/02/13 10:44:59;;;;;;;28.95;15.00;;;;;;;10.36;100.00;103643.22;5224205;28;20032;-76
2023/02/13 10:47:57;;;;;;;29.20;16.05;;;;;;;10.45;100.00;103644.47;5196676;28;20037;-76
2023/02/13 10:50:36;;;;;;;31.75;15.45;;;;;;;10.44;100.00;103639.19;5212654;28;20044;-76
2023/02/13 10:53:22;;;;;;;29.50;15.15;;;;;;;10.69;100.00;103639.34;5223887;28;20515;-75
2023/02/13 10:55:57;;;;;;;30.60;15.68;;;;;;;10.78;100.00;103632.53;5223259;28;20033;-76
2023/02/13 10:58:35;;;;;;;28.85;15.35;;;;;;;10.86;100.00;103635.56;5223282;28;20025;-76
2023/02/13 11:01:23;;;;;;;32.83;14.98;;;;;;;11.00;100.00;103640.91;5205604;28;20493;-76
2023/02/13 11:04:08;;;;;;;30.95;15.75;;;;;;;11.15;100.00;103633.66;5223609;28;20059;-76
2023/02/13 11:06:53;;;;;;;26.33;14.10;;;;;;;11.28;100.00;103636.38;5193762;28;20086;-76
2023/02/13 11:09:25;;;;;;;26.75;13.55;;;;;;;11.30;100.00;103631.78;5228583;28;20489;-76
2023/02/13 11:11:55;;;;;;;24.80;13.60;;;;;;;11.46;100.00;103618.16;5213863;28;20029;-76
2023/02/13 11:14:26;;;;;;;24.55;13.73;;;;;;;11.50;100.00;103616.97;5222998;28;20082;-76
2023/02/13 11:17:00;;;;;;;25.77;14.48;;;;;;;11.57;100.00;103613.75;5223002;28;20120;-76
2023/02/13 11:19:34;;;;;;;26.15;12.68;;;;;;;11.62;100.00;103616.97;5210380;28;20043;-76
2023/02/13 11:22:34;;;;;;;24.23;12.57;;;;;;;11.66;100.00;103610.44;5205488;28;20099;-76
2023/02/13 11:25:18;;;;;;;26.60;13.75;;;;;;;11.75;100.00;103605.41;5222294;28;20021;-76
2023/02/13 11:27:53;;;;;;;25.27;11.95;;;;;;;11.92;100.00;103599.72;5193804;28;20020;-76
2023/02/13 11:30:36;;;;;;;26.60;13.68;;;;;;;11.62;100.00;103594.63;5222905;28;20099;-76
2023/02/13 11:33:22;;;;;;;26.30;13.38;;;;;;;11.68;100.00;103589.66;5223185;28;20024;-76
2023/02/13 11:36:14;;;;;;;25.88;13.52;;;;;;;11.89;100.00;103587.31;5192998;28;20507;-76
2023/02/13 11:38:45;;;;;;;24.23;12.93;;;;;;;12.01;100.00;103587.44;5222630;28;20027;-76
2023/02/13 11:41:18;;;;;;;25.42;12.90;;;;;;;12.02;100.00;103586.47;5222749;28;20028;-76
2023/02/13 11:43:59;;;;;;;20.85;11.70;;;;;;;12.00;100.00;103577.63;5204631;28;20029;-77
2023/02/13 11:46:46;;;;;;;23.95;12.35;;;;;;;12.00;100.00;103581.22;5222639;28;20037;-76
2023/02/13 11:49:37;;;;;;;22.77;11.18;;;;;;;12.07;100.00;103571.72;5222113;28;20020;-77
2023/02/13 11:52:28;;;;;;;23.98;11.93;;;;;;;12.04;100.00;103571.06;5210762;28;20037;-76
2023/02/13 11:55:01;;;;;;;21.02;11.85;;;;;;;11.97;100.00;103573.34;5222307;28;20017;-76
2023/02/13 11:57:34;;;;;;;20.58;11.27;;;;;;;12.06;100.00;103574.53;5222649;28;20025;-76
2023/02/13 12:00:27;;;;;;;21.38;11.02;;;;;;;12.01;100.00;103571.31;5223617;28;20437;-76
2023/02/13 12:02:58;;;;;;;23.10;11.32;;;;;;;12.05;100.00;103559.31;5223880;28;20036;-76
2023/02/13 12:05:28;;;;;;;20.98;10.93;;;;;;;12.26;100.00;103568.56;5223870;28;20025;-76
2023/02/13 12:08:00;;;;;;;20.55;11.32;;;;;;;12.34;100.00;103557.22;5223289;28;20029;-76
2023/02/13 12:10:34;;;;;;;22.67;12.50;;;;;;;12.35;100.00;103551.75;5223291;28;20485;-77
2023/02/13 12:13:11;;;;;;;19.75;11.63;;;;;;;12.44;100.00;103555.56;5205552;28;20048;-76
2023/02/13 12:15:44;;;;;;;22.70;12.32;;;;;;;12.45;100.00;103551.94;5223861;28;20069;-76
2023/02/13 12:18:36;;;;;;;19.23;10.70;;;;;;;12.50;100.00;103543.50;5205833;28;20025;-77
2023/02/13 12:21:34;;;;;;;21.85;11.07;;;;;;;12.61;100.00;103535.50;5210325;28;20509;-76
2023/02/13 12:24:31;;;;;;;20.33;10.05;;;;;;;12.61;100.00;103541.75;5223498;28;20103;-76
2023/02/13 12:27:16;;;;;;;20.85;10.95;;;;;;;12.68;100.00;103539.44;5223266;28;20485;-76
2023/02/13 12:30:06;;;;;;;17.00;9.85;;;;;;;12.78;100.00;103528.84;5205451;28;20027;-76
2023/02/13 12:33:03;;;;;;;21.63;10.93;;;;;;;12.90;100.00;103536.88;5211862;28;20040;-77